Time;durP1;ratioP1;P1;durP2;ratioP2;P2;SDS_P1;SDS_P2;PMS_P1;PMS_P2;Temp;Humidity;BMP_temperature;BMP_pressure;BME280_temperature;BME280_humidity;BME280_pressure;Samples;Min_cycle;Max_cycle;Signal;HPM_P1;HPM_P2
2021/01/29 00:01:55;;;;;;;30.08;19.50;;;;;;;;;;6290971;28;20036;-69
2021/01/29 00:04:58;;;;;;;30.70;20.60;;;;;;;;;;6289867;28;20048;-68
2021/01/29 00:07:59;;;;;;;33.75;20.85;;;;;;;;;;6273838;28;20075;-66
2021/01/29 00:11:01;;;;;;;34.95;21.73;;;;;;;;;;6277779;28;20053;-67
2021/01/29 00:14:02;;;;;;;34.60;20.98;;;;;;;;;;6280216;28;20040;-69
2021/01/29 00:17:03;;;;;;;36.83;20.55;;;;;;;;;;6291481;28;20044;-67
2021/01/29 00:20:09;;;;;;;35.08;21.70;;;;;;;;;;6282151;28;20044;-69
2021/01/29 00:23:11;;;;;;;36.08;23.45;;;;;;;;;;6273884;28;20598;-67
2021/01/29 00:26:12;;;;;;;32.25;21.60;;;;;;;;;;6280736;28;20053;-67
2021/01/29 00:29:13;;;;;;;35.17;22.95;;;;;;;;;;6283484;28;20049;-67
2021/01/29 00:32:14;;;;;;;32.30;22.23;;;;;;;;;;6272085;28;20562;-66
2021/01/29 00:35:16;;;;;;;34.40;22.58;;;;;;;;;;6274108;28;20064;-67
2021/01/29 00:38:17;;;;;;;32.78;22.45;;;;;;;;;;6276774;28;20049;-67
2021/01/29 00:41:23;;;;;;;35.13;22.88;;;;;;;;;;6281969;28;20044;-66
2021/01/29 00:44:24;;;;;;;39.15;24.13;;;;;;;;;;6279424;28;20059;-68
2021/01/29 00:47:25;;;;;;;35.25;23.25;;;;;;;;;;6288817;28;20901;-69
2021/01/29 00:50:27;;;;;;;35.97;22.33;;;;;;;;;;6281059;28;20063;-66
2021/01/29 00:53:28;;;;;;;36.45;23.40;;;;;;;;;;6273611;28;20526;-68
2021/01/29 00:56:29;;;;;;;40.88;23.60;;;;;;;;;;6272749;28;20131;-66
2021/01/29 00:59:30;;;;;;;37.65;24.25;;;;;;;;;;6277830;28;20436;-66
2021/01/29 01:02:31;;;;;;;39.55;25.38;;;;;;;;;;6267695;28;20135;-70
2021/01/29 01:05:34;;;;;;;37.15;24.73;;;;;;;;;;6275452;28;20550;-66
2021/01/29 01:08:35;;;;;;;39.60;25.60;;;;;;;;;;6279269;28;20489;-68
2021/01/29 01:11:36;;;;;;;37.85;24.38;;;;;;;;;;6275305;28;20045;-66
2021/01/29 01:14:37;;;;;;;39.92;25.92;;;;;;;;;;6275791;28;20044;-66
2021/01/29 01:17:38;;;;;;;37.70;24.35;;;;;;;;;;6279230;28;20048;-67
2021/01/29 01:20:40;;;;;;;40.22;25.92;;;;;;;;;;6277109;28;20049;-67
2021/01/29 01:23:41;;;;;;;39.58;25.15;;;;;;;;;;6273736;28;20048;-67
2021/01/29 01:26:42;;;;;;;38.55;25.30;;;;;;;;;;6274211;28;20052;-72
2021/01/29 01:29:44;;;;;;;42.45;25.15;;;;;;;;;;6281261;28;20044;-68
2021/01/29 01:32:45;;;;;;;40.05;24.80;;;;;;;;;;6286669;28;20052;-70
2021/01/29 01:35:47;;;;;;;37.42;24.65;;;;;;;;;;6277881;28;20103;-68
2021/01/29 01:38:48;;;;;;;40.08;25.60;;;;;;;;;;6278006;28;20059;-67
2021/01/29 01:41:50;;;;;;;41.67;24.52;;;;;;;;;;6276163;28;20052;-67
2021/01/29 01:44:51;;;;;;;39.65;25.83;;;;;;;;;;6284083;28;20045;-67
2021/01/29 01:47:54;;;;;;;37.47;24.90;;;;;;;;;;6289316;28;20407;-73
2021/01/29 01:50:56;;;;;;;40.20;24.10;;;;;;;;;;6285372;28;20481;-67
2021/01/29 01:54:00;;;;;;;40.58;24.42;;;;;;;;;;6285851;28;20048;-67
2021/01/29 01:57:01;;;;;;;35.55;23.42;;;;;;;;;;6289363;28;20795;-68
2021/01/29 02:00:07;;;;;;;36.97;24.55;;;;;;;;;;6280427;28;20043;-67
2021/01/29 02:03:29;;;;;;;33.90;23.10;;;;;;;;;;6292367;22;20053;-72
2021/01/29 02:06:42;;;;;;;36.35;23.08;;;;;;;;;;6264976;28;20071;-71
2021/01/29 03:13:30;;;;;;;36.92;22.25;;;;;;;;;;6174393;28;20022;-72
2021/01/29 03:28:22;;;;;;;;;;;;;;;;;;;;;
2021/01/29 03:32:06;;;;;;;31.15;21.33;;;;;;;;;;6159677;28;20066;-71
2021/01/29 03:35:33;;;;;;;30.83;20.90;;;;;;;;;;6210373;28;20049;-72
2021/01/29 03:54:27;;;;;;;31.98;19.40;;;;;;;;;;6084614;29;19915;-71
2021/01/29 04:01:31;;;;;;;30.42;20.00;;;;;;;;;;6151172;28;20046;-71
2021/01/29 04:09:06;;;;;;;30.25;19.58;;;;;;;;;;6184822;28;20050;-71
2021/01/29 04:28:25;;;;;;;27.92;19.10;;;;;;;;;;6158988;28;20047;-70
2021/01/29 04:59:45;;;;;;;33.75;22.08;;;;;;;;;;6145561;28;20051;-71
2021/01/29 05:07:30;;;;;;;35.17;23.23;;;;;;;;;;6119330;29;20047;-70
2021/01/29 05:11:24;;;;;;;36.40;24.60;;;;;;;;;;6113846;28;20052;-72
2021/01/29 05:14:58;;;;;;;33.95;21.73;;;;;;;;;;6155193;28;20050;-72
2021/01/29 05:30:50;;;;;;;37.00;23.17;;;;;;;;;;6107980;29;20071;-71
2021/01/29 05:42:27;;;;;;;34.17;23.55;;;;;;;;;;6039179;29;20045;-71
2021/01/29 05:46:18;;;;;;;;;;;;;;;;;;;;;
2021/01/29 05:57:47;;;;;;;37.03;24.23;;;;;;;;;;5997824;29;20502;-70
2021/01/29 06:01:41;;;;;;;;;;;;;;;;;;;;;
2021/01/29 06:09:10;;;;;;;37.05;23.15;;;;;;;;;;6097670;28;20070;-71
2021/01/29 06:12:45;;;;;;;33.42;23.35;;;;;;;;;;6163374;28;20062;-70
2021/01/29 06:28:34;;;;;;;31.55;22.85;;;;;;;;;;6057320;29;20683;-72
2021/01/29 06:36:10;;;;;;;38.78;23.70;;;;;;;;;;6116583;29;20126;-71
2021/01/29 06:39:22;;;;;;;34.80;24.35;;;;;;;;;;6226789;28;20569;-71
2021/01/29 06:47:04;;;;;;;36.58;24.33;;;;;;;;;;6145665;28;20062;-71
2021/01/29 06:50:40;;;;;;;31.52;23.45;;;;;;;;;;6178300;28;20052;-73
2021/01/29 06:58:15;;;;;;;33.20;24.77;;;;;;;;;;6123563;28;20059;-73
2021/01/29 07:01:49;;;;;;;34.78;24.15;;;;;;;;;;6133450;29;20134;-71
2021/01/29 07:05:12;;;;;;;34.55;23.70;;;;;;;;;;6222793;28;20115;-71
2021/01/29 07:08:39;;;;;;;36.95;24.58;;;;;;;;;;6254717;28;20092;-72
2021/01/29 07:11:52;;;;;;;33.17;24.17;;;;;;;;;;6254202;28;20049;-70
2021/01/29 07:15:17;;;;;;;42.90;24.20;;;;;;;;;;6253393;28;20065;-70
2021/01/29 07:18:56;;;;;;;38.05;24.23;;;;;;;;;;6247655;28;20053;-70
2021/01/29 07:22:24;;;;;;;36.83;22.55;;;;;;;;;;6249721;28;20049;-70
2021/01/29 07:25:31;;;;;;;33.67;24.13;;;;;;;;;;6236389;28;20052;-71
2021/01/29 07:28:51;;;;;;;36.92;24.98;;;;;;;;;;6217594;28;20041;-71
2021/01/29 07:32:01;;;;;;;37.85;23.95;;;;;;;;;;6239727;28;20041;-70
2021/01/29 07:35:11;;;;;;;41.78;27.15;;;;;;;;;;6225808;28;20108;-70
2021/01/29 07:38:31;;;;;;;33.65;23.60;;;;;;;;;;6229716;28;20419;-70
2021/01/29 07:41:40;;;;;;;36.08;24.67;;;;;;;;;;6222245;28;20448;-71
2021/01/29 07:44:51;;;;;;;33.42;24.38;;;;;;;;;;6236679;28;20291;-70
2021/01/29 07:48:21;;;;;;;37.03;25.85;;;;;;;;;;6235334;28;20477;-71
2021/01/29 07:51:31;;;;;;;34.72;23.65;;;;;;;;;;6228632;28;20059;-71
2021/01/29 07:54:54;;;;;;;31.17;24.20;;;;;;;;;;6233703;28;20056;-70
2021/01/29 07:58:18;;;;;;;35.30;24.30;;;;;;;;;;6234273;28;20049;-70
2021/01/29 08:01:30;;;;;;;35.50;24.67;;;;;;;;;;6227053;28;20084;-70
2021/01/29 08:04:57;;;;;;;36.25;25.17;;;;;;;;;;6224343;28;20045;-70
2021/01/29 08:08:00;;;;;;;33.63;24.38;;;;;;;;;;6233949;28;20444;-70
2021/01/29 08:11:04;;;;;;;33.85;24.45;;;;;;;;;;6224555;28;20068;-72
2021/01/29 08:14:25;;;;;;;35.08;26.35;;;;;;;;;;6221046;28;20116;-70
2021/01/29 08:17:38;;;;;;;33.80;26.20;;;;;;;;;;6226507;28;20148;-70
2021/01/29 08:21:02;;;;;;;33.33;24.95;;;;;;;;;;6225719;28;20139;-71
2021/01/29 08:24:10;;;;;;;38.10;25.85;;;;;;;;;;6217167;28;20412;-73
2021/01/29 08:27:24;;;;;;;37.85;25.50;;;;;;;;;;6228344;28;20057;-72
2021/01/29 08:31:01;;;;;;;34.30;26.17;;;;;;;;;;6219968;28;20127;-71
2021/01/29 08:34:33;;;;;;;33.63;24.77;;;;;;;;;;6220283;28;20069;-70
2021/01/29 08:37:42;;;;;;;34.22;24.90;;;;;;;;;;6216953;28;20613;-72
2021/01/29 08:40:51;;;;;;;39.00;26.15;;;;;;;;;;6231763;28;20522;-70
2021/01/29 08:44:00;;;;;;;33.17;24.63;;;;;;;;;;6233386;28;20065;-70
2021/01/29 08:47:19;;;;;;;37.63;24.73;;;;;;;;;;6236131;28;20528;-71
2021/01/29 08:50:33;;;;;;;35.67;25.33;;;;;;;;;;6227875;28;20088;-72
2021/01/29 08:54:02;;;;;;;34.55;24.80;;;;;;;;;;6228987;28;20642;-70
2021/01/29 08:57:12;;;;;;;35.00;24.45;;;;;;;;;;6226419;28;20045;-72
2021/01/29 09:00:24;;;;;;;36.83;24.85;;;;;;;;;;6237655;28;20088;-72
2021/01/29 09:03:31;;;;;;;34.83;24.33;;;;;;;;;;6235340;28;20140;-70
2021/01/29 09:06:38;;;;;;;39.92;23.58;;;;;;;;;;6225863;28;20104;-71
2021/01/29 09:09:41;;;;;;;39.70;24.77;;;;;;;;;;6210272;28;20421;-72
2021/01/29 09:12:43;;;;;;;34.88;25.27;;;;;;;;;;6209022;28;20073;-70
2021/01/29 09:15:50;;;;;;;35.53;25.10;;;;;;;;;;6208479;28;20042;-70
2021/01/29 09:18:57;;;;;;;34.60;23.67;;;;;;;;;;6212178;28;20042;-71
2021/01/29 09:22:07;;;;;;;30.95;23.00;;;;;;;;;;6205763;28;20397;-73
2021/01/29 09:25:15;;;;;;;35.15;25.30;;;;;;;;;;6206874;28;20519;-72
2021/01/29 09:28:17;;;;;;;38.30;24.98;;;;;;;;;;6211947;28;20752;-73
2021/01/29 09:31:24;;;;;;;32.42;23.98;;;;;;;;;;6216450;28;20066;-72
2021/01/29 09:34:31;;;;;;;37.35;23.73;;;;;;;;;;6210730;28;20133;-75
2021/01/29 09:37:33;;;;;;;35.90;23.85;;;;;;;;;;6215638;28;20085;-73
2021/01/29 09:40:44;;;;;;;34.67;24.67;;;;;;;;;;6214581;28;20061;-73
2021/01/29 09:43:49;;;;;;;35.88;24.52;;;;;;;;;;6213481;28;20133;-72
2021/01/29 09:46:54;;;;;;;35.97;22.88;;;;;;;;;;6221056;28;20053;-74
2021/01/29 09:50:00;;;;;;;35.58;24.08;;;;;;;;;;6225074;28;20054;-73
2021/01/29 09:53:25;;;;;;;36.53;24.75;;;;;;;;;;6233903;28;20053;-72
2021/01/29 09:56:28;;;;;;;;;;;;;;;;;;6237205;28;20038;-72
2021/01/29 09:59:53;;;;;;;35.67;23.85;;;;;;;;;;6232813;28;19968;-75
2021/01/29 10:02:58;;;;;;;34.88;23.85;;;;;;;;;;6222092;28;20045;-73
2021/01/29 10:06:03;;;;;;;35.20;23.73;;;;;;;;;;6235241;28;20054;-71
2021/01/29 10:09:14;;;;;;;34.65;24.50;;;;;;;;;;6254380;28;20057;-71
2021/01/29 10:12:18;;;;;;;34.10;25.35;;;;;;;;;;6248840;28;20045;-74
2021/01/29 10:15:21;;;;;;;36.25;24.73;;;;;;;;;;6237384;28;20136;-73
2021/01/29 10:18:24;;;;;;;36.28;25.25;;;;;;;;;;6255246;28;20507;-72
2021/01/29 10:21:35;;;;;;;33.08;24.27;;;;;;;;;;6250222;28;20504;-72
2021/01/29 10:24:40;;;;;;;35.20;24.08;;;;;;;;;;6249218;28;20125;-73
2021/01/29 10:27:46;;;;;;;31.50;23.67;;;;;;;;;;6254530;28;20057;-72
2021/01/29 10:30:50;;;;;;;32.03;23.67;;;;;;;;;;6249696;28;20080;-72
2021/01/29 10:34:12;;;;;;;30.77;23.60;;;;;;;;;;6242914;28;20047;-72
2021/01/29 10:37:19;;;;;;;33.13;23.63;;;;;;;;;;6250980;28;20049;-72
2021/01/29 10:40:24;;;;;;;31.35;24.35;;;;;;;;;;6255857;28;20057;-72
2021/01/29 10:43:30;;;;;;;;;;;;;;;;;;6250989;28;20054;-73
2021/01/29 10:46:51;;;;;;;33.53;23.90;;;;;;;;;;6256342;28;19986;-73
2021/01/29 10:50:21;;;;;;;32.63;24.17;;;;;;;;;;6239656;28;20073;-73
2021/01/29 10:53:24;;;;;;;32.38;23.00;;;;;;;;;;6232380;28;20049;-71
2021/01/29 10:56:29;;;;;;;30.55;24.10;;;;;;;;;;6254648;28;20095;-73
2021/01/29 10:59:38;;;;;;;35.50;24.15;;;;;;;;;;6256047;28;20530;-73
2021/01/29 11:02:40;;;;;;;35.60;23.55;;;;;;;;;;6236308;28;20041;-72
2021/01/29 11:05:44;;;;;;;33.42;24.33;;;;;;;;;;6243882;28;20058;-71
2021/01/29 11:08:48;;;;;;;33.80;25.73;;;;;;;;;;6243524;28;20049;-75
2021/01/29 11:12:02;;;;;;;33.03;24.55;;;;;;;;;;6247169;28;20080;-72
2021/01/29 11:15:12;;;;;;;33.63;26.15;;;;;;;;;;6253902;28;20045;-74
2021/01/29 11:18:19;;;;;;;35.78;26.23;;;;;;;;;;6266786;23;20033;-75
2021/01/29 11:21:25;;;;;;;36.78;27.65;;;;;;;;;;6266069;28;20124;-68
2021/01/29 11:24:32;;;;;;;35.33;26.58;;;;;;;;;;6273479;28;20452;-71
2021/01/29 11:27:36;;;;;;;33.58;25.80;;;;;;;;;;6269843;28;20053;-69
2021/01/29 11:30:48;;;;;;;37.97;27.98;;;;;;;;;;6246756;28;20072;-70
2021/01/29 11:33:50;;;;;;;37.60;26.70;;;;;;;;;;6274241;28;20446;-70
2021/01/29 11:37:04;;;;;;;41.92;28.23;;;;;;;;;;6274565;28;20044;-70
2021/01/29 11:40:13;;;;;;;34.70;27.77;;;;;;;;;;6273863;28;20037;-68
2021/01/29 11:43:21;;;;;;;38.33;28.02;;;;;;;;;;6274177;28;20447;-68
2021/01/29 11:46:26;;;;;;;38.75;28.60;;;;;;;;;;6273808;28;20127;-73
2021/01/29 11:49:29;;;;;;;37.20;27.98;;;;;;;;;;6274143;28;20122;-72
2021/01/29 11:52:34;;;;;;;37.07;28.27;;;;;;;;;;6273797;28;20498;-69
2021/01/29 11:55:42;;;;;;;40.50;28.13;;;;;;;;;;6272844;28;20456;-70
2021/01/29 11:58:47;;;;;;;36.95;30.77;;;;;;;;;;6274020;28;20072;-69
2021/01/29 12:01:52;;;;;;;34.80;28.27;;;;;;;;;;6272618;28;20124;-71
2021/01/29 12:05:03;;;;;;;36.42;28.92;;;;;;;;;;6256475;28;20070;-67
2021/01/29 12:08:24;;;;;;;38.58;28.42;;;;;;;;;;6250678;28;20132;-71
2021/01/29 12:11:33;;;;;;;37.17;28.55;;;;;;;;;;6247537;28;20059;-73
2021/01/29 12:14:47;;;;;;;40.08;28.52;;;;;;;;;;6239139;28;21583;-71
2021/01/29 12:17:51;;;;;;;37.20;28.65;;;;;;;;;;6247234;28;20073;-74
2021/01/29 12:21:05;;;;;;;35.90;28.23;;;;;;;;;;6248241;28;20045;-69
2021/01/29 12:24:19;;;;;;;37.63;29.65;;;;;;;;;;6247531;28;20518;-72
2021/01/29 12:27:23;;;;;;;37.35;28.67;;;;;;;;;;6253110;28;20048;-73
2021/01/29 12:30:28;;;;;;;36.78;29.33;;;;;;;;;;6246737;28;20446;-73
2021/01/29 12:33:32;;;;;;;39.03;28.73;;;;;;;;;;6251486;28;20067;-71
2021/01/29 12:36:36;;;;;;;38.13;29.02;;;;;;;;;;6242799;28;20041;-69
2021/01/29 12:39:41;;;;;;;35.67;28.92;;;;;;;;;;6245984;28;20073;-71
2021/01/29 12:42:50;;;;;;;40.97;29.92;;;;;;;;;;6249707;28;20156;-73
2021/01/29 12:45:54;;;;;;;41.85;30.45;;;;;;;;;;6245088;28;20083;-72
2021/01/29 12:49:00;;;;;;;42.13;30.50;;;;;;;;;;6248071;28;20068;-73
2021/01/29 12:52:06;;;;;;;38.53;29.15;;;;;;;;;;6251555;28;20050;-73
2021/01/29 12:55:13;;;;;;;38.22;30.17;;;;;;;;;;6249763;28;20046;-75
2021/01/29 12:58:15;;;;;;;36.95;28.58;;;;;;;;;;6224208;28;20053;-71
2021/01/29 13:01:41;;;;;;;39.35;31.77;;;;;;;;;;6248315;28;20583;-71
2021/01/29 13:04:47;;;;;;;38.08;28.98;;;;;;;;;;6248248;28;20083;-72
2021/01/29 13:08:03;;;;;;;40.75;30.17;;;;;;;;;;6251374;28;20565;-72
2021/01/29 13:11:11;;;;;;;41.15;29.05;;;;;;;;;;6247556;28;20099;-71
2021/01/29 13:14:18;;;;;;;38.25;29.42;;;;;;;;;;5553157;28;10001474;-71
2021/01/29 13:17:25;;;;;;;40.35;27.60;;;;;;;;;;6253385;28;20037;-73
2021/01/29 13:20:30;;;;;;;42.20;27.70;;;;;;;;;;6241494;28;20500;-74
2021/01/29 13:23:40;;;;;;;35.92;26.17;;;;;;;;;;6246438;28;20848;-69
2021/01/29 13:26:44;;;;;;;37.10;26.98;;;;;;;;;;6247813;28;20045;-71
2021/01/29 13:29:45;;;;;;;37.72;27.73;;;;;;;;;;6253030;28;20171;-73
2021/01/29 13:32:47;;;;;;;39.53;27.33;;;;;;;;;;6258946;28;20049;-73
2021/01/29 13:35:51;;;;;;;35.13;26.00;;;;;;;;;;6253133;28;22006;-73
2021/01/29 13:38:52;;;;;;;;;;;;;;;;;;6250832;28;20227;-72
2021/01/29 13:41:55;;;;;;;39.30;26.85;;;;;;;;;;6254919;28;20047;-74
2021/01/29 13:44:59;;;;;;;40.38;25.73;;;;;;;;;;6257499;28;20041;-72
2021/01/29 13:48:03;;;;;;;36.05;25.63;;;;;;;;;;6258422;28;20055;-72
2021/01/29 13:51:27;;;;;;;39.50;26.75;;;;;;;;;;6256954;28;20601;-71
2021/01/29 13:54:31;;;;;;;34.95;26.48;;;;;;;;;;6252378;28;20091;-72
2021/01/29 13:57:36;;;;;;;38.03;26.23;;;;;;;;;;6256493;28;21867;-72
2021/01/29 14:00:41;;;;;;;33.92;25.58;;;;;;;;;;6256955;28;20038;-71
2021/01/29 14:03:47;;;;;;;33.38;24.55;;;;;;;;;;6254962;28;20052;-74
2021/01/29 14:06:49;;;;;;;34.03;24.48;;;;;;;;;;6268574;28;20686;-74
2021/01/29 14:09:50;;;;;;;31.05;24.10;;;;;;;;;;6261118;28;20048;-72
2021/01/29 14:13:01;;;;;;;32.58;24.30;;;;;;;;;;6257247;28;20254;-72
2021/01/29 14:16:07;;;;;;;35.17;25.48;;;;;;;;;;6253148;28;20495;-73
2021/01/29 14:19:17;;;;;;;37.45;26.25;;;;;;;;;;6255128;28;20088;-71
2021/01/29 14:22:24;;;;;;;35.00;24.75;;;;;;;;;;6247876;28;20459;-71
2021/01/29 14:25:34;;;;;;;30.13;23.92;;;;;;;;;;6184911;28;111132;-73
2021/01/29 14:28:44;;;;;;;35.80;25.63;;;;;;;;;;6182087;28;20060;-73
2021/01/29 14:31:50;;;;;;;35.08;24.77;;;;;;;;;;6188560;28;86317;-72
2021/01/29 14:34:58;;;;;;;34.58;25.00;;;;;;;;;;6210605;28;20077;-72
2021/01/29 14:38:13;;;;;;;30.80;25.38;;;;;;;;;;6208536;28;20050;-73
2021/01/29 14:41:19;;;;;;;30.42;24.38;;;;;;;;;;6210396;28;20100;-72
2021/01/29 14:44:47;;;;;;;33.25;25.08;;;;;;;;;;6205939;28;20409;-73
2021/01/29 14:48:10;;;;;;;32.88;25.50;;;;;;;;;;6209976;28;20069;-73
2021/01/29 14:51:24;;;;;;;34.60;25.70;;;;;;;;;;6176785;28;20046;-72
2021/01/29 14:54:28;;;;;;;34.45;25.73;;;;;;;;;;6211944;28;20181;-72
2021/01/29 14:57:31;;;;;;;32.70;25.83;;;;;;;;;;6209780;28;20065;-74
2021/01/29 15:00:36;;;;;;;32.58;25.90;;;;;;;;;;6209298;28;20508;-74
2021/01/29 15:03:39;;;;;;;33.67;27.25;;;;;;;;;;6206950;28;20176;-72
2021/01/29 15:06:41;;;;;;;37.85;25.65;;;;;;;;;;6208928;28;20042;-72
2021/01/29 15:09:47;;;;;;;33.53;25.02;;;;;;;;;;6211234;28;20492;-72
2021/01/29 15:12:49;;;;;;;41.15;26.63;;;;;;;;;;6204573;28;20072;-73
2021/01/29 15:15:50;;;;;;;34.25;25.88;;;;;;;;;;6198974;28;20054;-73
2021/01/29 15:18:51;;;;;;;35.92;26.25;;;;;;;;;;6204431;28;20053;-72
2021/01/29 15:21:54;;;;;;;34.67;26.77;;;;;;;;;;6209000;28;20129;-73
2021/01/29 15:25:20;;;;;;;34.22;25.60;;;;;;;;;;6208841;28;20045;-72
2021/01/29 15:28:24;;;;;;;30.40;25.77;;;;;;;;;;6203322;28;20077;-72
2021/01/29 15:31:40;;;;;;;33.03;26.02;;;;;;;;;;6202813;28;20656;-72
2021/01/29 15:35:00;;;;;;;33.20;26.33;;;;;;;;;;6202584;28;20546;-72
2021/01/29 15:38:10;;;;;;;35.85;26.33;;;;;;;;;;6202427;28;20056;-72
2021/01/29 15:41:29;;;;;;;37.90;27.52;;;;;;;;;;6208012;28;20053;-71
2021/01/29 15:44:53;;;;;;;32.47;26.23;;;;;;;;;;6209682;28;20046;-72
2021/01/29 15:47:58;;;;;;;35.00;26.73;;;;;;;;;;6202955;28;20141;-72
2021/01/29 15:51:03;;;;;;;36.63;28.02;;;;;;;;;;6210305;28;20468;-73
2021/01/29 15:54:03;;;;;;;;;;;;;;;;;;6207361;28;20104;-72
2021/01/29 15:57:10;;;;;;;37.35;28.55;;;;;;;;;;6207331;28;19933;-71
2021/01/29 16:00:43;;;;;;;36.00;28.55;;;;;;;;;;6209450;28;20054;-73
2021/01/29 16:03:46;;;;;;;37.78;29.02;;;;;;;;;;6205026;28;20058;-71
2021/01/29 16:06:50;;;;;;;37.70;28.40;;;;;;;;;;6209097;28;21573;-71
2021/01/29 16:10:05;;;;;;;36.58;27.08;;;;;;;;;;6205860;28;20072;-71
2021/01/29 16:13:12;;;;;;;36.70;28.55;;;;;;;;;;6203476;28;21591;-73
2021/01/29 16:16:15;;;;;;;38.83;28.40;;;;;;;;;;6202083;28;20050;-71
2021/01/29 16:19:19;;;;;;;41.67;28.70;;;;;;;;;;6200553;28;21393;-71
2021/01/29 16:22:22;;;;;;;35.97;29.75;;;;;;;;;;6201880;28;20045;-71
2021/01/29 16:25:23;;;;;;;40.80;29.27;;;;;;;;;;6201754;28;20456;-74
2021/01/29 16:28:26;;;;;;;38.17;28.55;;;;;;;;;;6198596;28;20056;-74
2021/01/29 16:31:30;;;;;;;41.28;29.25;;;;;;;;;;6201752;28;20049;-73
2021/01/29 16:34:33;;;;;;;41.20;29.58;;;;;;;;;;6207403;28;20460;-71
2021/01/29 16:37:37;;;;;;;36.88;29.33;;;;;;;;;;6206675;28;20049;-71
2021/01/29 16:40:39;;;;;;;;;;;;;;;;;;6200329;28;20407;-72
2021/01/29 16:43:41;;;;;;;36.25;28.30;;;;;;;;;;6206457;28;20367;-71
2021/01/29 16:46:42;;;;;;;40.40;29.73;;;;;;;;;;6204704;28;20049;-72
2021/01/29 16:49:43;;;;;;;39.22;30.10;;;;;;;;;;6200487;28;20050;-73
2021/01/29 16:52:52;;;;;;;38.28;30.02;;;;;;;;;;6201066;28;20060;-72
2021/01/29 16:56:03;;;;;;;42.03;29.10;;;;;;;;;;6206485;28;20050;-71
2021/01/29 16:59:07;;;;;;;39.25;30.15;;;;;;;;;;6202402;28;20103;-70
2021/01/29 17:02:13;;;;;;;39.13;29.60;;;;;;;;;;6206810;28;20055;-70
2021/01/29 17:05:14;;;;;;;45.50;30.85;;;;;;;;;;6200619;28;20097;-70
2021/01/29 17:08:19;;;;;;;41.65;30.10;;;;;;;;;;6205877;28;20077;-70
2021/01/29 17:11:26;;;;;;;41.92;28.88;;;;;;;;;;6200453;28;20532;-73
2021/01/29 17:14:29;;;;;;;42.50;30.10;;;;;;;;;;6199734;28;20510;-70
2021/01/29 17:17:31;;;;;;;40.03;30.17;;;;;;;;;;6199782;28;20062;-70
2021/01/29 17:20:32;;;;;;;44.67;30.48;;;;;;;;;;6201982;28;20050;-69
2021/01/29 17:23:34;;;;;;;41.28;31.50;;;;;;;;;;6206088;28;20065;-70
2021/01/29 17:26:40;;;;;;;43.92;30.40;;;;;;;;;;6206754;28;20431;-73
2021/01/29 17:29:44;;;;;;;41.30;30.55;;;;;;;;;;6204046;28;20056;-71
2021/01/29 17:32:45;;;;;;;43.92;30.15;;;;;;;;;;6210153;28;20496;-71
2021/01/29 17:35:50;;;;;;;46.47;32.05;;;;;;;;;;6205569;28;20046;-71
2021/01/29 17:39:16;;;;;;;42.72;31.85;;;;;;;;;;6200931;28;20416;-73
2021/01/29 17:42:27;;;;;;;47.00;30.80;;;;;;;;;;6195876;28;20629;-73
2021/01/29 17:45:32;;;;;;;42.60;30.58;;;;;;;;;;6196012;28;20054;-71
2021/01/29 17:48:35;;;;;;;45.85;31.45;;;;;;;;;;6206136;28;20085;-71
2021/01/29 17:51:38;;;;;;;51.85;35.40;;;;;;;;;;6208174;28;20093;-73
2021/01/29 17:54:44;;;;;;;48.00;32.13;;;;;;;;;;6193342;28;21817;-72
2021/01/29 17:57:45;;;;;;;52.17;33.97;;;;;;;;;;6206715;28;20907;-72
2021/01/29 18:00:58;;;;;;;46.88;34.03;;;;;;;;;;6202878;28;21619;-71
2021/01/29 18:04:01;;;;;;;47.50;33.72;;;;;;;;;;6204944;28;20128;-71
2021/01/29 18:07:17;;;;;;;46.25;33.08;;;;;;;;;;6201703;28;20474;-75
2021/01/29 18:10:30;;;;;;;44.45;32.83;;;;;;;;;;6203423;28;20068;-73
2021/01/29 18:13:41;;;;;;;45.83;32.92;;;;;;;;;;6207056;28;20115;-71
2021/01/29 18:16:45;;;;;;;44.97;33.30;;;;;;;;;;6206891;28;20438;-72
2021/01/29 18:19:49;;;;;;;45.72;33.00;;;;;;;;;;6211661;28;20054;-71
2021/01/29 18:22:52;;;;;;;49.45;34.90;;;;;;;;;;6216358;28;20439;-71
2021/01/29 18:25:53;;;;;;;44.92;33.88;;;;;;;;;;6214559;28;20058;-72
2021/01/29 18:29:01;;;;;;;48.88;36.08;;;;;;;;;;6212671;28;20137;-71
2021/01/29 18:32:05;;;;;;;53.20;37.28;;;;;;;;;;6205453;28;20560;-70
2021/01/29 18:35:07;;;;;;;;;;;;;;;;;;6211696;28;20125;-72
2021/01/29 18:38:08;;;;;;;48.97;34.55;;;;;;;;;;6210849;28;21023;-71
2021/01/29 18:41:15;;;;;;;43.63;33.35;;;;;;;;;;6211103;28;20157;-71
2021/01/29 18:44:16;;;;;;;50.58;36.47;;;;;;;;;;6209966;28;20060;-70
2021/01/29 18:47:18;;;;;;;51.28;35.75;;;;;;;;;;6206971;28;20053;-74
2021/01/29 18:50:20;;;;;;;49.88;37.05;;;;;;;;;;6205132;28;20046;-71
2021/01/29 18:53:23;;;;;;;51.75;35.72;;;;;;;;;;6207681;28;20050;-71
2021/01/29 18:56:25;;;;;;;49.00;34.90;;;;;;;;;;6203444;28;23246;-71
2021/01/29 18:59:26;;;;;;;50.63;34.10;;;;;;;;;;6201687;28;20069;-70
2021/01/29 19:02:28;;;;;;;46.00;33.85;;;;;;;;;;6203410;28;20054;-71
2021/01/29 19:05:30;;;;;;;45.53;33.70;;;;;;;;;;6207446;28;20049;-72
2021/01/29 19:08:32;;;;;;;47.90;33.85;;;;;;;;;;6207354;28;20835;-74
2021/01/29 19:11:33;;;;;;;48.90;33.78;;;;;;;;;;6211061;28;20501;-71
2021/01/29 19:14:35;;;;;;;46.97;33.60;;;;;;;;;;6205716;28;20533;-71
2021/01/29 19:17:37;;;;;;;45.70;34.35;;;;;;;;;;6210248;28;20680;-71
2021/01/29 19:20:38;;;;;;;47.65;35.05;;;;;;;;;;6205194;28;20074;-73
2021/01/29 19:23:40;;;;;;;48.35;34.17;;;;;;;;;;6199761;28;20519;-71
2021/01/29 19:26:41;;;;;;;45.58;33.70;;;;;;;;;;6205809;28;20039;-71
2021/01/29 19:29:42;;;;;;;47.42;34.42;;;;;;;;;;6201252;28;20605;-72
2021/01/29 19:32:44;;;;;;;44.85;33.10;;;;;;;;;;6209692;28;20083;-70
2021/01/29 19:35:45;;;;;;;48.10;33.90;;;;;;;;;;6208705;28;20112;-72
2021/01/29 19:38:46;;;;;;;46.78;33.78;;;;;;;;;;6224026;28;20049;-72
2021/01/29 19:41:47;;;;;;;50.05;34.58;;;;;;;;;;6220929;28;20053;-70
2021/01/29 19:44:49;;;;;;;49.45;34.28;;;;;;;;;;6217177;28;20052;-70
2021/01/29 19:47:51;;;;;;;55.08;34.03;;;;;;;;;;6206791;28;20104;-72
2021/01/29 19:50:52;;;;;;;47.50;35.25;;;;;;;;;;6211353;28;20508;-71
2021/01/29 19:53:53;;;;;;;50.50;33.65;;;;;;;;;;6214152;28;20766;-71
2021/01/29 19:56:54;;;;;;;46.42;35.53;;;;;;;;;;6207241;28;20076;-72
2021/01/29 19:59:55;;;;;;;45.40;32.97;;;;;;;;;;6211722;28;20054;-75
2021/01/29 20:02:57;;;;;;;47.85;33.72;;;;;;;;;;6209525;28;20567;-72
2021/01/29 20:05:58;;;;;;;47.03;33.42;;;;;;;;;;6208834;28;20060;-71
2021/01/29 20:08:59;;;;;;;47.88;32.42;;;;;;;;;;6210812;28;20060;-71
2021/01/29 20:12:00;;;;;;;43.47;32.25;;;;;;;;;;6211229;28;20046;-71
2021/01/29 20:15:01;;;;;;;46.17;32.33;;;;;;;;;;6214618;28;20048;-71
2021/01/29 20:18:04;;;;;;;47.10;35.22;;;;;;;;;;6215402;28;20067;-72
2021/01/29 20:21:05;;;;;;;48.83;34.85;;;;;;;;;;6195699;28;20073;-75
2021/01/29 20:24:07;;;;;;;43.35;32.97;;;;;;;;;;6193960;28;20053;-71
2021/01/29 20:27:09;;;;;;;47.40;32.55;;;;;;;;;;6200834;28;20141;-71
2021/01/29 20:30:13;;;;;;;46.22;31.75;;;;;;;;;;6197741;28;20050;-71
2021/01/29 20:33:15;;;;;;;48.47;33.83;;;;;;;;;;6189852;28;20055;-71
2021/01/29 20:36:17;;;;;;;45.75;33.55;;;;;;;;;;6196311;28;20783;-71
2021/01/29 20:39:18;;;;;;;45.97;32.45;;;;;;;;;;6190077;28;20079;-74
2021/01/29 20:42:19;;;;;;;46.67;32.75;;;;;;;;;;6192843;28;20056;-71
2021/01/29 20:45:22;;;;;;;45.13;32.63;;;;;;;;;;6179558;28;20081;-70
2021/01/29 20:48:24;;;;;;;44.20;31.48;;;;;;;;;;6189046;28;20079;-70
2021/01/29 20:51:26;;;;;;;44.03;31.52;;;;;;;;;;6187262;28;20055;-74
2021/01/29 20:54:27;;;;;;;43.78;32.75;;;;;;;;;;6202791;28;20053;-70
2021/01/29 20:57:28;;;;;;;45.65;31.35;;;;;;;;;;6196136;28;20072;-70
2021/01/29 21:00:29;;;;;;;44.65;31.83;;;;;;;;;;6170981;28;20495;-71
2021/01/29 21:03:31;;;;;;;44.35;31.52;;;;;;;;;;6194648;28;20060;-72
2021/01/29 21:06:32;;;;;;;46.22;31.35;;;;;;;;;;6190255;28;20563;-72
2021/01/29 21:09:33;;;;;;;45.40;31.35;;;;;;;;;;6178450;28;20054;-72
2021/01/29 21:12:34;;;;;;;41.97;29.65;;;;;;;;;;6201096;28;20056;-71
2021/01/29 21:15:37;;;;;;;43.25;33.60;;;;;;;;;;6194630;28;20089;-74
2021/01/29 21:18:39;;;;;;;47.47;32.05;;;;;;;;;;6204369;28;20057;-71
2021/01/29 21:21:40;;;;;;;43.63;31.13;;;;;;;;;;6214162;28;20053;-73
2021/01/29 21:24:41;;;;;;;44.33;31.05;;;;;;;;;;6208156;28;20164;-71
2021/01/29 21:27:42;;;;;;;44.60;31.80;;;;;;;;;;6211765;28;20075;-70
2021/01/29 21:30:44;;;;;;;46.92;30.88;;;;;;;;;;6221142;28;20148;-70
2021/01/29 21:33:45;;;;;;;42.28;30.85;;;;;;;;;;6212401;28;20168;-70
2021/01/29 21:36:46;;;;;;;46.17;31.73;;;;;;;;;;6214655;28;20857;-70
2021/01/29 21:39:47;;;;;;;43.90;30.67;;;;;;;;;;6213099;28;20180;-70
2021/01/29 21:42:48;;;;;;;45.92;30.50;;;;;;;;;;6197511;28;20046;-74
2021/01/29 21:45:53;;;;;;;42.83;30.08;;;;;;;;;;6208504;28;20444;-70